Discovery — 3FII9 — position and weather

sailwx.info

Track history (hours):
 
Tides and Currents Weather Stations Pressure Air Temp Water Temp Dewpoint Dewpoint Depression Visibility Wind Speed Wind Dir Waves Ship Positions

Discovery

Operator: V Ships Leisure SAM

Last reported at 2020-Mar-22 19:52 UTC. Time now 2020-Apr-05 08:22 UTC.
Position N 18°56' W 081°09'.
Warning: this ship's position is 13 days out of date.

Length 177 m; draft 10.2 m.

Type: Cargo ship. MMSI: 353389000.

Date/timePositionNaut miles runAvg speedWind from/ knotsBaromVisibWave heightAir tempDewpointWater temp
2020-Mar-22 19:52N 18°56' W 081°09'613.0
2020-Mar-22 19:24N 18°58' W 081°15'1413.0
2020-Mar-22 18:18N 19°04' W 081°28'  
2020-Mar-19 14:30N 27°59' W 094°25'812.1
2020-Mar-19 13:52N 28°06' W 094°25'512.1
2020-Mar-19 13:29N 28°11' W 094°25'4312.4
2020-Mar-19 10:00N 28°54' W 094°25'812.8
2020-Mar-19 09:22N 29°02' W 094°25'1011.5
2020-Mar-19 08:30N 29°11' W 094°30'20 9.8
2020-Mar-19 06:30N 29°22' W 094°49'4 3.7
2020-Mar-19 05:30N 29°22' W 094°53'0 0.0
2020-Mar-19 04:58N 29°22' W 094°53'0 0.0
2020-Mar-19 04:22N 29°22' W 094°53'0 0.0
2020-Mar-19 03:16N 29°22' W 094°53'0 0.0
2020-Mar-19 02:22N 29°22' W 094°53'0 0.0
2020-Mar-18 23:58N 29°22' W 094°53'0 0.0
2020-Mar-18 19:40N 29°22' W 094°53'0 0.0
2020-Mar-18 18:25N 29°22' W 094°53'0 0.0
2020-Mar-18 13:22N 29°22' W 094°53'0 0.0
2020-Mar-18 12:22N 29°22' W 094°53'0 0.0
2020-Mar-18 11:58N 29°22' W 094°53'0 0.0
2020-Mar-18 09:58N 29°22' W 094°53'0 0.0
2020-Mar-18 09:28N 29°22' W 094°53'0 0.0
2020-Mar-18 08:46N 29°22' W 094°53'0 0.0
2020-Mar-18 08:25N 29°22' W 094°53'0 0.0
2020-Mar-18 03:28N 29°22' W 094°53'0 0.0
2020-Mar-18 02:28N 29°22' W 094°53'0 0.0
2020-Mar-18 01:52N 29°22' W 094°53'0 0.0
2020-Mar-18 00:58N 29°22' W 094°53'0 0.0
2020-Mar-17 20:28N 29°22' W 094°53'0 0.0
2020-Mar-17 17:58N 29°22' W 094°53'0 0.0
2020-Mar-17 16:28N 29°22' W 094°53'0 0.0
2020-Mar-17 12:34N 29°22' W 094°53'0 0.0
2020-Mar-17 09:16N 29°22' W 094°53'0 0.0
2020-Mar-17 06:28N 29°22' W 094°53'0 0.0
2020-Mar-17 05:52N 29°22' W 094°53'0 0.0
2020-Mar-17 03:04N 29°22' W 094°53'0 0.0
2020-Mar-17 00:58N 29°22' W 094°53'0 0.0
2020-Mar-16 22:58N 29°22' W 094°53'2 1.7
2020-Mar-16 21:30N 29°22' W 094°51'2210.7
2020-Mar-16 19:30N 29°13' W 094°28'7 3.7
2020-Mar-16 17:30N 29°06' W 094°29'5 1.9
2020-Mar-16 14:55N 29°05' W 094°35'0 0.0
2020-Mar-16 14:28N 29°05' W 094°35'0 0.0
2020-Mar-16 11:58N 29°05' W 094°35'0 0.0
2020-Mar-16 06:58N 29°05' W 094°35'0 0.0
2020-Mar-16 06:28N 29°05' W 094°35'0 0.0
2020-Mar-16 05:58N 29°05' W 094°35'0 0.0
2020-Mar-16 05:28N 29°05' W 094°35'0 0.0
2020-Mar-16 03:28N 29°05' W 094°35'0 0.0
2020-Mar-15 22:22N 29°05' W 094°35'0 0.0
2020-Mar-15 21:49N 29°05' W 094°35'0 0.0
2020-Mar-15 21:01N 29°05' W 094°35'0 0.0
2020-Mar-15 19:31N 29°05' W 094°35'0 0.0
2020-Mar-15 13:58N 29°05' W 094°35'0 0.0
2020-Mar-15 10:58N 29°05' W 094°35'0 0.0
2020-Mar-15 09:43N 29°05' W 094°35'0 0.0
2020-Mar-15 03:25N 29°05' W 094°35'6 1.2
2020-Mar-14 22:30N 29°01' W 094°30'1110.7
2020-Mar-14 21:30N 28°51' W 094°25'612.6
2020-Mar-14 21:00N 28°45' W 094°25'1212.4
2020-Mar-14 20:01N 28°32' W 094°25'612.5
2020-Mar-14 19:30N 28°26' W 094°25'2612.7
2020-Mar-14 17:30N 28°00' W 094°25'1912.7
2020-Mar-14 16:00N 27°41' W 094°23'  
Track history (hours):
 
Tides and Currents Weather Stations Pressure Air Temp Water Temp Dewpoint Dewpoint Depression Visibility Wind Speed Wind Dir Waves Ship Positions

Discovery

Operator: V Ships Leisure SAM

Last reported at 2020-Mar-22 19:52 UTC. Time now 2020-Apr-05 08:22 UTC.
Position N 18°56' W 081°09'.
Warning: this ship's position is 13 days out of date.

Length 177 m; draft 10.2 m.

Type: Cargo ship. MMSI: 353389000.

Date/timePositionNaut miles runAvg speedWind from/ knotsBaromVisibWave heightAir tempDewpointWater temp
2020-Mar-22 19:52N 18°56' W 081°09'613.0
2020-Mar-22 19:24N 18°58' W 081°15'1413.0
2020-Mar-22 18:18N 19°04' W 081°28'  
2020-Mar-19 14:30N 27°59' W 094°25'812.1
2020-Mar-19 13:52N 28°06' W 094°25'512.1
2020-Mar-19 13:29N 28°11' W 094°25'4312.4
2020-Mar-19 10:00N 28°54' W 094°25'812.8
2020-Mar-19 09:22N 29°02' W 094°25'1011.5
2020-Mar-19 08:30N 29°11' W 094°30'20 9.8
2020-Mar-19 06:30N 29°22' W 094°49'4 3.7
2020-Mar-19 05:30N 29°22' W 094°53'0 0.0
2020-Mar-19 04:58N 29°22' W 094°53'0 0.0
2020-Mar-19 04:22N 29°22' W 094°53'0 0.0
2020-Mar-19 03:16N 29°22' W 094°53'0 0.0
2020-Mar-19 02:22N 29°22' W 094°53'0 0.0
2020-Mar-18 23:58N 29°22' W 094°53'0 0.0
2020-Mar-18 19:40N 29°22' W 094°53'0 0.0
2020-Mar-18 18:25N 29°22' W 094°53'0 0.0
2020-Mar-18 13:22N 29°22' W 094°53'0 0.0
2020-Mar-18 12:22N 29°22' W 094°53'0 0.0
2020-Mar-18 11:58N 29°22' W 094°53'0 0.0
2020-Mar-18 09:58N 29°22' W 094°53'0 0.0
2020-Mar-18 09:28N 29°22' W 094°53'0 0.0
2020-Mar-18 08:46N 29°22' W 094°53'0 0.0
2020-Mar-18 08:25N 29°22' W 094°53'0 0.0
2020-Mar-18 03:28N 29°22' W 094°53'0 0.0
2020-Mar-18 02:28N 29°22' W 094°53'0 0.0
2020-Mar-18 01:52N 29°22' W 094°53'0 0.0
2020-Mar-18 00:58N 29°22' W 094°53'0 0.0
2020-Mar-17 20:28N 29°22' W 094°53'0 0.0
2020-Mar-17 17:58N 29°22' W 094°53'0 0.0
2020-Mar-17 16:28N 29°22' W 094°53'0 0.0
2020-Mar-17 12:34N 29°22' W 094°53'0 0.0
2020-Mar-17 09:16N 29°22' W 094°53'0 0.0
2020-Mar-17 06:28N 29°22' W 094°53'0 0.0
2020-Mar-17 05:52N 29°22' W 094°53'0 0.0
2020-Mar-17 03:04N 29°22' W 094°53'0 0.0
2020-Mar-17 00:58N 29°22' W 094°53'0 0.0
2020-Mar-16 22:58N 29°22' W 094°53'2 1.7
2020-Mar-16 21:30N 29°22' W 094°51'2210.7
2020-Mar-16 19:30N 29°13' W 094°28'7 3.7
2020-Mar-16 17:30N 29°06' W 094°29'5 1.9
2020-Mar-16 14:55N 29°05' W 094°35'0 0.0
2020-Mar-16 14:28N 29°05' W 094°35'0 0.0
2020-Mar-16 11:58N 29°05' W 094°35'0 0.0
2020-Mar-16 06:58N 29°05' W 094°35'0 0.0
2020-Mar-16 06:28N 29°05' W 094°35'0 0.0
2020-Mar-16 05:58N 29°05' W 094°35'0 0.0
2020-Mar-16 05:28N 29°05' W 094°35'0 0.0
2020-Mar-16 03:28N 29°05' W 094°35'0 0.0
2020-Mar-15 22:22N 29°05' W 094°35'0 0.0
2020-Mar-15 21:49N 29°05' W 094°35'0 0.0
2020-Mar-15 21:01N 29°05' W 094°35'0 0.0
2020-Mar-15 19:31N 29°05' W 094°35'0 0.0
2020-Mar-15 13:58N 29°05' W 094°35'0 0.0
2020-Mar-15 10:58N 29°05' W 094°35'0 0.0
2020-Mar-15 09:43N 29°05' W 094°35'0 0.0
2020-Mar-15 03:25N 29°05' W 094°35'6 1.2
2020-Mar-14 22:30N 29°01' W 094°30'1110.7
2020-Mar-14 21:30N 28°51' W 094°25'612.6
2020-Mar-14 21:00N 28°45' W 094°25'1212.4
2020-Mar-14 20:01N 28°32' W 094°25'612.5
2020-Mar-14 19:30N 28°26' W 094°25'2612.7
2020-Mar-14 17:30N 28°00' W 094°25'1912.7
2020-Mar-14 16:00N 27°41' W 094°23'  

Dump ship's entire track history